METAR Data
IDs: Format: Raw Decoded Include TAF

Data at: 0109 UTC 10 Dec 2022

METAR for:KFFT (Frankfort/Capital Ci, KY, US)
Text:KFFT 100053Z AUTO 28003KT 5SM BR OVC003 10/09 A3012 RMK AO2 SLP202 T01000094
Temperature: 10.0°C ( 50°F)
Dewpoint: 9.4°C ( 49°F) [RH = 96%]
Pressure (altimeter):30.12 inches Hg (1020.1 mb) [Sea level pressure: 1020.2 mb]
Winds:from the W (280 degrees) at 3 MPH (3 knots; 1.5 m/s)
Visibility: 5 sm ( 8 km)
Ceiling:300 feet AGL
Clouds: overcast cloud deck at 300 feet AGL
Weather:BR (mist)
QC Flag:automated observation with no human augmentation